Time;durP1;ratioP1;P1;durP2;ratioP2;P2;SDS_P1;SDS_P2;PMS_P1;PMS_P2;Temp;Humidity;BMP_temperature;BMP_pressure;BME280_temperature;BME280_humidity;BME280_pressure;Samples;Min_cycle;Max_cycle;Signal;HPM_P1;HPM_P2
2022/02/11 00:01:11;;;;;;;13.67;5.90;;;6.80;1.00;;;;;;5046762;28;20421;-74
2022/02/11 00:09:11;;;;;;;5.40;3.50;;;6.70;1.00;;;;;;5048251;28;20401;-74
2022/02/11 00:11:39;;;;;;;4.60;2.90;;;6.70;1.00;;;;;;5041401;28;20430;-74
2022/02/11 00:14:07;;;;;;;5.07;3.50;;;6.70;1.00;;;;;;5051034;28;20311;-74
2022/02/11 00:16:40;;;;;;;2.13;1.93;;;6.70;1.00;;;;;;5044544;28;20429;-74
2022/02/11 00:19:26;;;;;;;1.97;1.73;;;6.60;1.00;;;;;;5049919;28;20514;-77
2022/02/11 00:21:52;;;;;;;1.17;1.00;;;6.70;1.00;;;;;;5048102;28;20899;-77
2022/02/11 00:24:17;;;;;;;1.13;0.93;;;6.60;1.00;;;;;;5047329;28;20918;-77
2022/02/11 00:27:14;;;;;;;1.10;0.80;;;6.60;1.00;;;;;;5035287;28;20403;-78
2022/02/11 00:32:22;;;;;;;0.90;0.90;;;6.50;1.00;;;;;;5047884;28;20419;-74
2022/02/11 00:34:54;;;;;;;1.20;0.97;;;6.50;1.00;;;;;;5047242;28;20448;-75
2022/02/11 00:37:23;;;;;;;0.53;0.53;;;6.50;1.00;;;;;;5043239;28;20913;-74
2022/02/11 01:04:20;;;;;;;0.60;0.60;;;6.20;1.00;;;;;;5047249;28;20485;-77
2022/02/11 01:06:56;;;;;;;0.70;0.70;;;6.30;1.00;;;;;;5033843;28;20734;-77
2022/02/11 01:09:26;;;;;;;0.50;0.50;;;6.20;1.00;;;;;;5051213;28;20817;-77
2022/02/11 01:11:56;;;;;;;0.80;0.70;;;6.20;1.00;;;;;;5040860;28;20510;-77
2022/02/11 01:14:32;;;;;;;0.60;0.60;;;6.20;1.00;;;;;;5046818;28;20600;-77
2022/02/11 01:17:16;;;;;;;1.00;0.60;;;6.20;1.00;;;;;;5047312;28;20434;-77
2022/02/11 02:01:50;;;;;;;1.90;0.50;;;5.80;1.00;;;;;;5046804;28;20422;-74
2022/02/11 02:50:25;;;;;;;0.87;0.67;;;5.60;1.00;;;;;;5052085;28;20418;-77
2022/02/11 02:59:09;;;;;;;0.67;0.67;;;5.50;1.00;;;;;;5043964;28;20762;-77
2022/02/11 03:02:02;;;;;;;0.67;0.67;;;5.50;1.00;;;;;;5049549;28;20407;-77
2022/02/11 03:16:19;;;;;;;1.73;0.83;;;5.30;1.00;;;;;;5042278;28;20499;-73
2022/02/11 03:49:26;;;;;;;0.87;0.80;;;4.30;1.00;;;;;;5000615;28;20428;-74
2022/02/11 03:52:24;;;;;;;0.70;0.70;;;4.30;1.00;;;;;;4999985;28;20893;-73
2022/02/11 04:20:32;;;;;;;2.10;0.90;;;3.90;1.00;;;;;;4980851;28;20700;-74
2022/02/11 04:55:25;;;;;;;3.00;1.45;;;3.00;1.00;;;;;;4992802;28;20264;-77
2022/02/11 05:00:44;;;;;;;1.92;1.65;;;2.80;1.00;;;;;;4990077;28;20738;-76
2022/02/11 05:03:32;;;;;;;1.70;1.60;;;2.70;1.00;;;;;;4992668;28;20624;-76
2022/02/11 05:06:02;;;;;;;2.47;1.40;;;2.60;1.00;;;;;;4993030;28;20252;-76
2022/02/11 05:08:33;;;;;;;2.40;2.20;;;2.60;1.00;;;;;;4984084;28;20198;-77
2022/02/11 05:10:59;;;;;;;1.38;1.27;;;2.50;1.00;;;;;;5046382;28;20183;-77
2022/02/11 05:13:26;;;;;;;4.50;2.00;;;2.50;1.00;;;;;;5044645;28;20171;-76
2022/02/11 05:15:56;;;;;;;1.85;1.75;;;2.40;1.00;;;;;;5050599;28;20934;-76
2022/02/11 05:18:32;;;;;;;7.90;1.90;;;2.40;1.00;;;;;;5042053;28;20610;-76
2022/02/11 05:20:58;;;;;;;2.95;2.45;;;2.40;1.00;;;;;;5053172;28;20202;-74
2022/02/11 05:23:24;;;;;;;4.63;2.20;;;2.40;1.00;;;;;;5040555;28;20623;-74
2022/02/11 05:25:56;;;;;;;4.60;2.13;;;2.40;1.00;;;;;;5043792;28;20176;-74
2022/02/11 05:28:22;;;;;;;1.85;1.75;;;2.30;1.00;;;;;;5043932;28;20196;-74
2022/02/11 05:31:02;;;;;;;1.50;1.40;;;2.30;1.00;;;;;;5043366;28;20188;-74
2022/02/11 05:33:32;;;;;;;4.50;2.80;;;2.30;1.00;;;;;;5051257;28;20221;-74
2022/02/11 05:35:59;;;;;;;4.97;2.40;;;2.30;1.00;;;;;;5039356;28;20215;-77
2022/02/11 05:38:32;;;;;;;3.83;2.10;;;2.20;1.00;;;;;;5049367;28;20172;-76
2022/02/11 05:41:03;;;;;;;9.30;3.40;;;2.30;1.00;;;;;;5038896;28;20168;-77
2022/02/11 05:43:32;;;;;;;14.90;2.97;;;2.20;1.00;;;;;;5051311;28;20203;-76
2022/02/11 05:46:02;;;;;;;6.60;3.20;;;2.20;1.00;;;;;;5040193;28;20203;-77
2022/02/11 05:48:35;;;;;;;3.03;2.72;;;2.10;1.00;;;;;;5052164;28;20647;-77
2022/02/11 05:51:02;;;;;;;3.40;3.10;;;2.10;1.00;;;;;;5040953;28;20227;-76
2022/02/11 05:53:28;;;;;;;6.25;3.30;;;2.00;1.00;;;;;;5043676;28;20187;-77
2022/02/11 05:56:03;;;;;;;7.00;3.30;;;2.00;1.00;;;;;;5043926;28;20265;-76
2022/02/11 05:58:32;;;;;;;4.57;2.90;;;2.00;1.00;;;;;;5055204;28;20202;-76
2022/02/11 06:01:14;;;;;;;3.22;2.72;;;2.00;1.00;;;;;;5057289;28;20537;-76
2022/02/11 06:04:02;;;;;;;5.93;3.30;;;1.90;1.00;;;;;;5056838;28;20677;-76
2022/02/11 06:06:28;;;;;;;4.10;3.20;;;1.90;1.00;;;;;;5037496;28;20176;-74
2022/02/11 06:08:53;;;;;;;5.50;3.20;;;1.80;1.00;;;;;;5044254;28;20182;-73
2022/02/11 06:11:20;;;;;;;6.40;3.80;;;1.80;1.00;;;;;;5047483;28;20194;-74
2022/02/11 06:13:46;;;;;;;5.93;3.67;;;1.80;1.00;;;;;;5052929;28;20248;-74
2022/02/11 06:16:20;;;;;;;5.88;3.88;;;1.80;1.00;;;;;;5052895;28;20209;-74
2022/02/11 06:18:46;;;;;;;9.20;3.78;;;1.80;1.00;;;;;;5043959;28;20166;-74
2022/02/11 06:21:15;;;;;;;9.23;4.10;;;1.80;1.00;;;;;;5045063;28;20550;-76
2022/02/11 06:23:55;;;;;;;4.80;3.60;;;1.70;1.00;;;;;;5055078;28;20180;-76
2022/02/11 06:26:32;;;;;;;4.68;4.03;;;1.70;1.00;;;;;;5041765;28;20168;-76
2022/02/11 06:28:58;;;;;;;4.30;3.70;;;1.70;1.00;;;;;;5045048;28;20269;-77
2022/02/11 06:31:24;;;;;;;3.70;3.30;;;1.70;1.00;;;;;;5054925;28;20650;-76
2022/02/11 06:33:51;;;;;;;6.53;3.97;;;1.70;1.00;;;;;;5049163;28;20175;-76
2022/02/11 06:36:20;;;;;;;3.40;3.10;;;1.70;1.00;;;;;;5036918;28;20211;-75
2022/02/11 06:38:46;;;;;;;12.95;4.00;;;1.70;1.00;;;;;;5045071;28;20306;-74
2022/02/11 06:41:12;;;;;;;4.13;3.33;;;1.70;1.00;;;;;;5051476;28;20758;-74
2022/02/11 06:43:38;;;;;;;4.07;3.50;;;1.70;1.00;;;;;;5052392;28;20183;-74
2022/02/11 06:46:04;;;;;;;4.60;3.50;;;1.80;1.00;;;;;;5056162;28;20485;-74
2022/02/11 06:48:32;;;;;;;8.50;3.93;;;1.80;1.00;;;;;;5052862;28;20167;-75
2022/02/11 06:50:59;;;;;;;5.60;3.75;;;1.80;1.00;;;;;;5054779;28;20436;-76
2022/02/11 06:53:26;;;;;;;3.97;3.55;;;1.80;1.00;;;;;;5051410;28;20203;-77
2022/02/11 06:56:03;;;;;;;4.85;3.95;;;1.80;1.00;;;;;;5054912;28;20198;-76
2022/02/11 06:58:32;;;;;;;8.18;3.97;;;1.90;1.00;;;;;;5054493;28;20210;-77
2022/02/11 07:01:08;;;;;;;6.22;3.90;;;1.90;1.00;;;;;;5051841;28;20180;-76
2022/02/11 07:03:44;;;;;;;4.95;3.25;;;2.00;1.00;;;;;;5034799;28;20161;-80
2022/02/11 07:06:14;;;;;;;5.47;4.00;;;2.10;1.00;;;;;;5048874;28;20168;-76
2022/02/11 07:08:50;;;;;;;3.42;2.92;;;2.20;1.00;;;;;;5049689;28;20651;-76
2022/02/11 07:11:16;;;;;;;5.47;3.60;;;2.20;1.00;;;;;;5054779;28;20171;-76
2022/02/11 07:13:44;;;;;;;4.67;3.63;;;2.40;1.00;;;;;;5054503;28;20176;-76
2022/02/11 07:16:26;;;;;;;17.52;3.80;;;2.50;1.00;;;;;;5035704;28;20553;-76
2022/02/11 07:18:56;;;;;;;6.00;4.05;;;2.60;1.00;;;;;;5051050;28;20219;-76
2022/02/11 07:21:32;;;;;;;8.82;4.15;;;2.60;1.00;;;;;;5035939;28;20164;-76
2022/02/11 07:24:02;;;;;;;7.72;3.33;;;2.70;1.00;;;;;;5035610;28;20528;-77
2022/02/11 07:26:32;;;;;;;4.80;3.47;;;2.80;1.00;;;;;;5035936;28;20623;-76
2022/02/11 07:29:02;;;;;;;8.18;3.28;;;2.80;1.00;;;;;;5041328;28;20205;-77
2022/02/11 07:31:28;;;;;;;5.45;3.35;;;3.40;1.00;;;;;;5055388;28;20160;-76
2022/02/11 07:34:02;;;;;;;5.70;3.80;;;2.80;1.00;;;;;;5052990;28;20187;-77
2022/02/11 07:36:28;;;;;;;8.63;4.28;;;2.90;1.00;;;;;;5053359;28;20237;-77
2022/02/11 07:39:03;;;;;;;6.70;4.10;;;3.10;1.00;;;;;;5038467;28;20212;-77
2022/02/11 07:41:33;;;;;;;8.55;4.70;;;3.20;1.00;;;;;;5035969;28;20421;-77
2022/02/11 07:44:03;;;;;;;12.18;4.28;;;3.20;1.00;;;;;;5031833;28;20188;-77
2022/02/11 07:46:29;;;;;;;6.25;3.65;;;3.20;1.00;;;;;;5047552;28;20183;-77
2022/02/11 07:48:56;;;;;;;3.90;3.13;;;3.40;1.00;;;;;;5054919;28;20261;-77
2022/02/11 07:51:22;;;;;;;7.78;3.30;;;3.50;1.00;;;;;;5054810;28;20766;-76
2022/02/11 07:53:58;;;;;;;3.85;3.13;;;3.50;1.00;;;;;;5054580;28;20152;-78
2022/02/11 07:56:25;;;;;;;5.20;3.25;;;3.50;1.00;;;;;;5050799;28;20196;-77
2022/02/11 07:58:51;;;;;;;9.50;3.45;;;3.70;1.00;;;;;;5051683;28;20179;-77
2022/02/11 08:01:32;;;;;;;18.13;3.73;;;3.80;1.00;;;;;;5052038;28;20182;-77
2022/02/11 08:04:02;;;;;;;5.18;3.30;;;3.80;1.00;;;;;;5054054;28;20544;-77
2022/02/11 08:06:32;;;;;;;4.50;2.97;;;3.80;1.00;;;;;;5035225;28;20171;-77
2022/02/11 08:09:02;;;;;;;5.05;3.40;;;3.80;1.00;;;;;;5035333;28;20639;-77
2022/02/11 08:11:28;;;;;;;9.70;2.95;;;3.80;1.00;;;;;;5033361;28;20589;-77
2022/02/11 08:14:02;;;;;;;5.60;3.00;;;3.80;1.00;;;;;;5035721;28;20165;-77
2022/02/11 08:16:28;;;;;;;3.10;2.80;;;4.00;1.00;;;;;;5040300;28;20199;-77
2022/02/11 08:19:00;;;;;;;6.63;2.47;;;4.10;1.00;;;;;;5049090;28;20206;-77
2022/02/11 08:21:29;;;;;;;6.72;3.17;;;4.20;1.00;;;;;;5056870;28;20270;-76
2022/02/11 08:23:55;;;;;;;3.93;2.73;;;4.40;1.00;;;;;;5050787;28;20185;-74
2022/02/11 08:26:21;;;;;;;3.23;2.67;;;;;;;;;;5044354;28;20976;-74
2022/02/11 08:28:47;;;;;;;2.47;2.27;;;4.50;1.00;;;;;;5040259;28;20198;-74
2022/02/11 08:31:13;;;;;;;3.53;2.43;;;4.60;1.00;;;;;;5043984;28;20411;-74
2022/02/11 08:33:39;;;;;;;5.00;2.20;;;4.50;1.00;;;;;;5047555;28;20419;-74
2022/02/11 08:36:05;;;;;;;3.50;2.10;;;4.40;1.00;;;;;;5036397;28;20462;-74
2022/02/11 08:38:31;;;;;;;2.73;2.00;;;4.50;1.00;;;;;;5040538;28;20953;-77
2022/02/11 08:41:02;;;;;;;13.87;2.70;;;4.60;1.00;;;;;;5042372;28;20231;-77
2022/02/11 08:43:32;;;;;;;2.40;1.33;;;4.80;1.00;;;;;;5045186;28;20525;-77
2022/02/11 08:46:04;;;;;;;1.83;1.33;;;4.90;1.00;;;;;;5037908;28;20431;-77
2022/02/11 08:48:32;;;;;;;2.60;1.97;;;5.00;1.00;;;;;;5033986;28;20546;-77
2022/02/11 08:51:03;;;;;;;6.47;1.83;;;5.20;1.00;;;;;;5034154;28;20398;-77
2022/02/11 08:53:30;;;;;;;12.73;2.47;;;5.40;1.00;;;;;;5041462;28;20430;-73
2022/02/11 08:55:55;;;;;;;10.13;2.67;;;5.60;1.00;;;;;;5045490;28;20449;-74
2022/02/11 08:58:21;;;;;;;4.17;2.20;;;7.50;1.00;;;;;;5042967;28;20500;-73
2022/02/11 09:00:50;;;;;;;2.63;1.60;;;5.70;1.00;;;;;;5040139;28;20175;-73
2022/02/11 09:03:16;;;;;;;1.40;1.17;;;5.80;1.00;;;;;;5053466;28;20464;-73
2022/02/11 09:05:42;;;;;;;4.17;1.93;;;5.90;1.00;;;;;;5048116;28;20430;-74
2022/02/11 09:08:09;;;;;;;6.93;2.00;;;5.90;1.00;;;;;;5051092;28;20987;-76
2022/02/11 09:10:39;;;;;;;1.77;1.67;;;5.90;1.00;;;;;;5043731;28;20480;-77
2022/02/11 09:13:05;;;;;;;9.07;2.00;;;6.00;1.00;;;;;;5047625;28;20502;-77
2022/02/11 09:15:33;;;;;;;3.00;1.77;;;6.10;1.00;;;;;;5044264;28;20846;-78
2022/02/11 09:18:02;;;;;;;3.70;1.70;;;6.30;1.00;;;;;;5047068;28;20785;-77
2022/02/11 09:20:32;;;;;;;1.53;0.90;;;6.30;1.00;;;;;;5053509;28;20775;-78
2022/02/11 09:23:02;;;;;;;3.53;1.60;;;6.30;1.00;;;;;;5034838;28;20415;-73
2022/02/11 09:25:34;;;;;;;3.30;1.50;;;6.30;1.00;;;;;;5033272;28;20419;-74
2022/02/11 09:28:00;;;;;;;12.03;1.33;;;6.30;1.00;;;;;;5048208;28;20509;-73
2022/02/11 09:30:26;;;;;;;5.03;1.23;;;6.30;1.00;;;;;;5049798;28;20786;-73
2022/02/11 09:32:52;;;;;;;1.57;1.43;;;6.50;1.00;;;;;;5037541;28;20461;-73
2022/02/11 09:35:21;;;;;;;2.87;1.50;;;6.50;1.00;;;;;;5050688;28;20453;-73
2022/02/11 09:38:14;;;;;;;1.83;1.43;;;6.60;1.00;;;;;;5044573;28;20418;-76
2022/02/11 09:40:50;;;;;;;3.30;1.80;;;6.70;1.00;;;;;;5043797;28;20921;-77
2022/02/11 09:43:27;;;;;;;3.50;1.60;;;6.60;1.00;;;;;;5057296;28;20756;-78
2022/02/11 09:46:02;;;;;;;5.90;1.80;;;6.70;1.00;;;;;;5037499;28;20399;-77
2022/02/11 09:48:32;;;;;;;1.60;1.23;;;6.90;1.00;;;;;;5050674;28;20414;-78
2022/02/11 09:50:59;;;;;;;2.20;1.27;;;6.90;1.00;;;;;;5053180;28;20467;-77
2022/02/11 09:53:29;;;;;;;1.33;1.27;;;6.80;1.00;;;;;;5042551;28;20954;-77
2022/02/11 09:55:55;;;;;;;5.47;1.70;;;6.80;1.00;;;;;;5045278;28;20806;-77
2022/02/11 09:58:21;;;;;;;2.90;1.87;;;6.80;1.00;;;;;;5050129;28;20445;-77
2022/02/11 10:00:49;;;;;;;14.03;2.47;;;6.80;1.00;;;;;;5045230;28;20448;-77
2022/02/11 10:03:32;;;;;;;1.50;1.33;;;6.80;1.00;;;;;;5049575;28;20211;-77
2022/02/11 10:06:00;;;;;;;2.17;1.23;;;6.70;1.00;;;;;;5056131;28;20424;-77
2022/02/11 10:08:29;;;;;;;3.03;1.40;;;6.70;1.00;;;;;;5045385;28;20505;-74
2022/02/11 10:10:57;;;;;;;1.03;1.00;;;;;;;;;;5055276;28;20847;-74
2022/02/11 10:13:30;;;;;;;3.63;1.10;;;6.60;1.00;;;;;;5055809;28;20862;-72
2022/02/11 10:16:10;;;;;;;6.80;1.80;;;6.60;1.00;;;;;;5041468;28;20524;-72
2022/02/11 10:18:42;;;;;;;1.70;1.40;;;6.60;1.00;;;;;;5037833;28;20426;-73
2022/02/11 10:21:20;;;;;;;0.60;0.60;;;6.80;1.00;;;;;;5043033;28;20501;-73
2022/02/11 10:23:48;;;;;;;1.53;1.03;;;6.80;1.00;;;;;;5047652;28;20427;-73
2022/02/11 10:26:16;;;;;;;2.50;1.60;;;6.90;1.00;;;;;;5040317;28;20435;-73
2022/02/11 10:28:43;;;;;;;0.97;0.97;;;7.00;1.00;;;;;;5043257;28;20430;-72
2022/02/11 10:31:26;;;;;;;3.30;0.73;;;7.10;1.00;;;;;;5046425;28;20520;-73
2022/02/11 10:34:11;;;;;;;2.20;1.77;;;7.20;1.00;;;;;;5036817;28;20446;-73
2022/02/11 10:36:49;;;;;;;4.40;1.67;;;7.40;1.00;;;;;;5052493;28;20848;-72
2022/02/11 10:39:19;;;;;;;2.03;0.80;;;7.50;1.00;;;;;;5048048;28;20406;-74
2022/02/11 10:41:50;;;;;;;3.67;1.50;;;7.60;1.00;;;;;;5038526;28;20502;-73
2022/02/11 10:44:17;;;;;;;5.03;1.33;;;7.80;1.00;;;;;;5045809;28;20422;-73
2022/02/11 10:46:49;;;;;;;3.77;1.10;;;9.60;1.00;;;;;;5049268;28;20422;-73
2022/02/11 10:49:40;;;;;;;1.47;1.20;;;7.90;1.00;;;;;;5054551;28;20531;-72
2022/02/11 10:52:13;;;;;;;1.57;1.00;;;8.00;1.00;;;;;;5046084;28;20446;-73
2022/02/11 10:54:41;;;;;;;2.47;1.20;;;8.00;1.00;;;;;;5036248;28;20406;-76
2022/02/11 10:57:15;;;;;;;4.60;1.03;;;8.00;1.00;;;;;;5049824;28;20534;-76
2022/02/11 11:00:03;;;;;;;3.00;1.27;;;8.00;1.00;;;;;;5056046;28;20393;-76
2022/02/11 11:02:40;;;;;;;4.10;1.37;;;8.00;1.00;;;;;;5045648;28;20407;-76
2022/02/11 11:05:14;;;;;;;2.20;1.03;;;7.90;1.00;;;;;;5055959;28;20418;-77
2022/02/11 11:07:45;;;;;;;1.20;1.10;;;7.70;1.00;;;;;;5043577;28;20917;-78
2022/02/11 11:10:15;;;;;;;3.13;1.53;;;7.70;1.00;;;;;;5045516;28;20430;-77
2022/02/11 11:12:54;;;;;;;1.60;1.20;;;7.70;1.00;;;;;;5052168;28;20414;-77
2022/02/11 11:15:22;;;;;;;4.60;0.70;;;7.70;1.00;;;;;;5055756;28;20485;-76
2022/02/11 11:17:58;;;;;;;4.77;1.73;;;7.70;1.00;;;;;;5050275;28;20930;-77
2022/02/11 11:20:45;;;;;;;2.67;1.10;;;7.70;1.00;;;;;;5048867;28;20505;-78
2022/02/11 11:23:23;;;;;;;4.50;1.30;;;7.60;1.00;;;;;;5049410;28;20437;-73
2022/02/11 11:26:02;;;;;;;2.80;0.90;;;7.50;1.00;;;;;;5043559;28;20457;-73
2022/02/11 11:28:45;;;;;;;0.90;0.90;;;7.50;1.00;;;;;;5055170;28;20757;-72
2022/02/11 11:31:17;;;;;;;3.37;0.83;;;7.50;1.00;;;;;;5035278;28;20401;-78
2022/02/11 11:33:44;;;;;;;2.30;0.97;;;7.70;1.00;;;;;;5035195;28;20506;-72
2022/02/11 11:36:14;;;;;;;3.20;0.60;;;7.70;1.00;;;;;;5040585;28;20493;-73
2022/02/11 11:38:43;;;;;;;2.30;0.80;;;7.80;1.00;;;;;;5039324;28;20509;-72
2022/02/11 11:41:19;;;;;;;6.13;1.10;;;7.70;1.00;;;;;;5055154;28;20402;-73
2022/02/11 11:43:56;;;;;;;2.00;0.90;;;7.90;1.00;;;;;;5041369;28;21027;-73
2022/02/11 11:46:21;;;;;;;2.27;1.00;;;8.00;1.00;;;;;;5048305;28;20430;-73
2022/02/11 11:49:00;;;;;;;3.43;1.10;;;8.10;1.00;;;;;;5047283;28;20423;-73
2022/02/11 11:51:34;;;;;;;3.43;1.33;;;8.20;1.00;;;;;;5045801;28;20684;-72
2022/02/11 11:54:21;;;;;;;2.03;0.80;;;8.20;1.00;;;;;;5035064;28;20425;-76
2022/02/11 11:57:05;;;;;;;1.10;1.00;;;8.30;1.00;;;;;;5053762;28;20806;-77
2022/02/11 11:59:56;;;;;;;2.30;0.97;;;8.30;1.00;;;;;;5040637;28;20866;-77
2022/02/11 12:02:47;;;;;;;1.53;0.87;;;8.30;1.00;;;;;;5054770;28;20975;-77
2022/02/11 12:05:13;;;;;;;1.60;0.97;;;8.60;1.00;;;;;;5047154;28;20411;-78
2022/02/11 12:07:51;;;;;;;1.40;0.93;;;8.80;1.00;;;;;;5049197;28;20538;-77
2022/02/11 12:10:27;;;;;;;1.93;1.00;;;8.90;1.00;;;;;;5041440;28;20176;-75
2022/02/11 12:12:52;;;;;;;4.27;1.10;;;8.90;1.00;;;;;;5041899;28;20440;-73
2022/02/11 12:15:18;;;;;;;3.97;1.03;;;8.90;1.00;;;;;;5054212;28;20457;-73
2022/02/11 12:17:44;;;;;;;3.13;1.10;;;8.90;1.00;;;;;;5040787;28;20180;-74
2022/02/11 12:20:10;;;;;;;2.43;1.03;;;9.70;1.00;;;;;;5045298;28;20414;-73
2022/02/11 12:22:36;;;;;;;7.60;0.97;;;8.90;1.00;;;;;;5042035;28;20176;-73
2022/02/11 12:28:07;;;;;;;1.50;1.03;;;9.10;1.00;;;;;;5050193;28;20241;-77
2022/02/11 12:30:42;;;;;;;2.87;1.23;;;9.10;1.00;;;;;;5043761;28;20424;-78
2022/02/11 12:33:20;;;;;;;3.03;1.27;;;9.20;1.00;;;;;;5038145;28;20670;-77
2022/02/11 12:36:17;;;;;;;5.07;1.50;;;9.30;1.00;;;;;;5040650;28;20548;-77
2022/02/11 12:38:42;;;;;;;9.03;1.43;;;9.50;1.00;;;;;;4963983;28;20446;-77
2022/02/11 12:41:14;;;;;;;2.20;1.17;;;9.40;1.00;;;;;;4973602;28;20747;-77
2022/02/11 12:44:08;;;;;;;5.60;1.70;;;9.30;1.00;;;;;;4973259;28;20190;-78
2022/02/11 12:46:57;;;;;;;8.33;1.60;;;9.40;1.00;;;;;;4954269;29;20411;-77
2022/02/11 12:49:27;;;;;;;4.40;1.63;;;9.40;1.00;;;;;;4968550;28;20425;-76
2022/02/11 12:51:57;;;;;;;3.90;1.50;;;9.40;1.00;;;;;;4960023;28;20453;-76
2022/02/11 12:54:27;;;;;;;3.23;1.33;;;9.20;1.00;;;;;;4971879;28;20413;-74
2022/02/11 12:57:07;;;;;;;7.77;1.80;;;8.90;1.00;;;;;;4965134;28;20971;-73
2022/02/11 12:59:33;;;;;;;3.63;1.50;;;8.90;1.00;;;;;;4965888;28;20852;-73
2022/02/11 13:02:02;;;;;;;11.80;1.30;;;8.80;1.00;;;;;;4967246;28;20450;-73
2022/02/11 13:04:28;;;;;;;3.57;1.50;;;8.60;1.00;;;;;;4972579;28;20179;-73
2022/02/11 13:06:56;;;;;;;4.33;1.47;;;8.50;1.00;;;;;;4942756;29;20469;-73
2022/02/11 13:09:22;;;;;;;1.40;0.77;;;8.60;1.00;;;;;;4953475;28;20225;-75
2022/02/11 13:11:54;;;;;;;2.63;1.30;;;8.60;1.00;;;;;;4969186;28;20413;-74
2022/02/11 13:14:20;;;;;;;4.40;1.20;;;8.60;1.00;;;;;;4987948;28;20417;-73
2022/02/11 13:16:50;;;;;;;5.87;1.40;;;8.70;1.00;;;;;;5039061;28;20449;-74
2022/02/11 13:19:17;;;;;;;1.20;1.03;;;8.80;1.00;;;;;;5043522;28;20407;-73
2022/02/11 13:21:44;;;;;;;4.77;1.23;;;8.90;1.00;;;;;;5039836;28;20410;-72
2022/02/11 13:24:10;;;;;;;3.10;1.50;;;8.90;1.00;;;;;;5045752;28;20467;-71
2022/02/11 13:26:57;;;;;;;4.27;1.40;;;9.80;1.00;;;;;;5040094;28;20505;-77
2022/02/11 13:29:23;;;;;;;2.70;1.70;;;9.00;1.00;;;;;;5053658;28;20386;-77
2022/02/11 13:31:53;;;;;;;3.73;1.27;;;9.10;1.00;;;;;;5053274;28;20401;-78
2022/02/11 13:34:20;;;;;;;1.87;1.20;;;9.10;1.00;;;;;;5037303;28;20187;-77
2022/02/11 13:37:17;;;;;;;4.63;1.27;;;9.10;1.00;;;;;;5035705;28;20960;-78
2022/02/11 13:39:51;;;;;;;2.87;1.20;;;;;;;;;;4986192;28;21219;-73
2022/02/11 13:42:18;;;;;;;2.10;0.97;;;8.70;1.00;;;;;;4985584;28;20930;-74
2022/02/11 13:45:03;;;;;;;2.73;1.17;;;8.70;1.00;;;;;;4982471;28;20441;-73
2022/02/11 13:47:29;;;;;;;5.10;1.33;;;8.30;1.00;;;;;;4991663;28;20420;-73
2022/02/11 13:50:04;;;;;;;7.20;1.37;;;8.10;1.00;;;;;;4982303;28;20437;-74
2022/02/11 13:55:16;;;;;;;2.27;1.00;;;7.60;1.00;;;;;;4989252;28;20494;-73
2022/02/11 13:57:42;;;;;;;5.53;1.20;;;7.60;1.00;;;;;;4979174;28;20432;-72
2022/02/11 14:00:43;;;;;;;6.00;1.37;;;7.60;1.00;;;;;;4990386;28;20425;-72
2022/02/11 14:03:22;;;;;;;3.13;1.13;;;7.50;1.00;;;;;;4933692;29;20439;-73
2022/02/11 14:05:49;;;;;;;5.03;1.60;;;7.50;1.00;;;;;;4922447;29;20440;-73
2022/02/11 14:08:15;;;;;;;7.13;2.03;;;7.60;1.00;;;;;;4927004;29;20428;-73
2022/02/11 14:10:43;;;;;;;3.67;1.33;;;7.60;1.00;;;;;;4932406;29;20451;-73
2022/02/11 14:13:10;;;;;;;12.80;1.50;;;7.60;1.00;;;;;;4922932;29;20483;-73
2022/02/11 14:15:36;;;;;;;4.57;2.13;;;7.60;1.00;;;;;;4943552;28;20472;-73
2022/02/11 14:18:04;;;;;;;6.27;1.27;;;7.60;1.00;;;;;;4999387;28;20439;-74
2022/02/11 14:20:32;;;;;;;3.90;0.90;;;7.60;1.00;;;;;;5014193;28;20423;-73
2022/02/11 14:23:13;;;;;;;7.13;1.53;;;7.80;1.00;;;;;;5013500;28;20427;-73
2022/02/11 14:26:02;;;;;;;8.60;1.90;;;7.90;1.00;;;;;;5009208;28;20432;-77
2022/02/11 14:28:38;;;;;;;8.33;1.50;;;8.00;1.00;;;;;;5014879;28;20950;-77
2022/02/11 14:31:05;;;;;;;5.13;1.90;;;8.20;1.00;;;;;;5014682;28;20510;-77
2022/02/11 14:33:33;;;;;;;4.30;1.40;;;8.30;1.00;;;;;;5014627;28;20423;-77
2022/02/11 14:36:03;;;;;;;1.70;0.90;;;9.20;1.00;;;;;;5000257;28;20519;-77
2022/02/11 14:38:29;;;;;;;7.43;1.47;;;8.50;1.00;;;;;;5036381;28;20529;-77
2022/02/11 14:44:08;;;;;;;2.20;1.00;;;8.60;1.00;;;;;;5036244;28;20853;-80
2022/02/11 14:46:38;;;;;;;7.40;1.30;;;8.60;1.00;;;;;;5049080;28;20510;-78
2022/02/11 14:49:04;;;;;;;18.03;1.60;;;8.50;1.00;;;;;;5049899;28;20464;-78
2022/02/11 14:51:39;;;;;;;2.10;1.00;;;8.50;1.00;;;;;;5048799;28;20419;-78
2022/02/11 14:54:34;;;;;;;2.90;1.47;;;8.50;1.00;;;;;;5049281;28;20438;-78
2022/02/11 14:56:59;;;;;;;4.27;1.67;;;8.60;1.00;;;;;;5048375;28;20465;-74
2022/02/11 14:59:25;;;;;;;4.83;1.50;;;8.70;1.00;;;;;;5046070;28;20506;-74
2022/02/11 15:01:53;;;;;;;6.63;1.20;;;8.70;1.00;;;;;;5050578;28;20630;-73
2022/02/11 15:04:19;;;;;;;4.23;1.57;;;8.70;1.00;;;;;;5048135;28;20783;-73
2022/02/11 15:06:47;;;;;;;2.70;1.20;;;8.60;1.00;;;;;;5053762;28;20430;-73
2022/02/11 15:09:13;;;;;;;6.67;1.27;;;8.50;1.00;;;;;;5042205;28;20422;-74
2022/02/11 15:11:44;;;;;;;3.30;1.00;;;8.60;1.00;;;;;;5054140;28;20418;-76
2022/02/11 15:14:14;;;;;;;4.30;1.37;;;8.60;1.00;;;;;;5052640;28;20480;-78
2022/02/11 15:16:40;;;;;;;3.37;1.27;;;8.70;1.00;;;;;;5055511;28;20464;-74
2022/02/11 15:19:06;;;;;;;2.27;0.93;;;8.60;1.00;;;;;;5048962;28;21073;-73
2022/02/11 15:21:34;;;;;;;2.83;0.97;;;8.40;1.00;;;;;;5050107;28;20184;-74
2022/02/11 15:24:01;;;;;;;1.53;0.93;;;8.40;1.00;;;;;;5051872;28;20168;-74
2022/02/11 15:26:37;;;;;;;4.10;1.50;;;8.40;1.00;;;;;;5045074;28;20813;-76
2022/02/11 15:29:07;;;;;;;2.40;1.17;;;8.40;1.00;;;;;;5041648;28;20429;-75
2022/02/11 15:31:36;;;;;;;1.30;0.80;;;8.40;1.00;;;;;;5043055;28;20423;-76
2022/02/11 15:34:06;;;;;;;0.50;0.50;;;8.20;1.00;;;;;;5054199;28;20495;-75
2022/02/11 15:36:33;;;;;;;5.70;1.00;;;8.20;1.00;;;;;;5055509;28;21319;-76
2022/02/11 15:39:18;;;;;;;4.73;0.80;;;8.10;1.00;;;;;;5049325;28;20449;-76
2022/02/11 15:41:45;;;;;;;4.40;1.13;;;8.00;1.00;;;;;;5048731;28;20425;-74
2022/02/11 15:44:16;;;;;;;4.70;1.17;;;7.90;1.00;;;;;;5043882;28;20765;-75
2022/02/11 15:46:45;;;;;;;2.33;0.97;;;7.80;1.00;;;;;;5041571;28;20411;-76
2022/02/11 15:49:15;;;;;;;2.23;0.83;;;7.80;1.00;;;;;;5045709;28;20415;-76
2022/02/11 15:51:59;;;;;;;2.10;1.17;;;7.50;1.00;;;;;;5048174;28;20469;-78
2022/02/11 15:54:33;;;;;;;3.53;1.23;;;7.50;1.00;;;;;;5042753;28;20458;-76
2022/02/11 15:57:02;;;;;;;2.00;0.97;;;7.40;1.00;;;;;;5042417;28;20803;-76
2022/02/11 15:59:30;;;;;;;4.80;0.57;;;7.20;1.00;;;;;;5049741;28;20466;-72
2022/02/11 16:01:57;;;;;;;1.90;1.00;;;7.20;1.00;;;;;;5050843;28;20513;-74
2022/02/11 16:04:22;;;;;;;2.93;1.00;;;7.10;1.00;;;;;;5040033;28;20434;-73
2022/02/11 16:06:50;;;;;;;5.90;0.77;;;7.00;1.00;;;;;;5048337;28;20429;-72
2022/02/11 16:09:16;;;;;;;3.60;1.33;;;7.00;1.00;;;;;;5040970;28;20579;-72
2022/02/11 16:11:42;;;;;;;2.23;1.00;;;7.00;1.00;;;;;;5046386;28;20434;-72
2022/02/11 16:14:09;;;;;;;3.60;1.40;;;7.00;1.00;;;;;;5052295;28;20573;-76
2022/02/11 16:16:35;;;;;;;2.50;0.90;;;6.90;1.00;;;;;;5037601;28;20558;-76
2022/02/11 16:19:32;;;;;;;3.20;0.97;;;6.90;1.00;;;;;;5043405;28;20441;-76
2022/02/11 16:22:09;;;;;;;2.47;0.97;;;6.80;1.00;;;;;;5041216;28;20415;-76
2022/02/11 16:25:02;;;;;;;3.07;0.87;;;6.70;1.00;;;;;;5037565;28;20484;-76
2022/02/11 16:27:44;;;;;;;4.30;1.33;;;6.60;1.00;;;;;;5047508;28;20437;-76
2022/02/11 16:30:10;;;;;;;3.10;1.00;;;6.50;1.00;;;;;;5036435;28;20425;-72
2022/02/11 16:32:36;;;;;;;1.23;0.70;;;6.50;1.00;;;;;;5052114;28;20422;-72
2022/02/11 16:35:03;;;;;;;3.03;1.03;;;6.40;1.00;;;;;;5051601;28;20206;-73
2022/02/11 16:37:29;;;;;;;4.10;1.10;;;6.40;1.00;;;;;;5040377;28;20183;-70
2022/02/11 16:39:54;;;;;;;5.20;1.20;;;6.20;1.00;;;;;;5049460;28;20424;-71
2022/02/11 16:42:20;;;;;;;2.80;1.17;;;6.20;1.00;;;;;;5052967;28;20184;-73
2022/02/11 16:44:46;;;;;;;2.83;1.17;;;6.10;1.00;;;;;;5054211;28;20638;-72
2022/02/11 16:47:12;;;;;;;0.73;0.73;;;6.10;1.00;;;;;;5040154;28;20415;-72
2022/02/11 16:49:38;;;;;;;6.70;1.13;;;;;;;;;;5052424;28;20180;-72
2022/02/11 16:52:06;;;;;;;1.03;0.93;;;5.80;1.00;;;;;;5045650;28;20168;-73
2022/02/11 16:54:33;;;;;;;9.87;1.70;;;5.80;1.00;;;;;;5050930;28;20426;-72
2022/02/11 16:56:59;;;;;;;8.40;1.60;;;5.70;1.00;;;;;;5051099;28;20457;-73
2022/02/11 16:59:39;;;;;;;4.20;1.10;;;5.70;1.00;;;;;;5035951;28;20449;-75
2022/02/11 17:02:27;;;;;;;5.83;1.00;;;5.50;1.00;;;;;;5051348;28;20409;-75
2022/02/11 17:04:53;;;;;;;2.40;1.00;;;5.50;1.00;;;;;;5053465;28;20406;-75
2022/02/11 17:07:39;;;;;;;3.37;1.30;;;5.50;1.00;;;;;;5034483;28;20411;-77
2022/02/11 17:10:15;;;;;;;4.57;1.07;;;5.40;1.00;;;;;;5038565;28;20403;-76
2022/02/11 17:12:41;;;;;;;4.30;1.43;;;5.30;1.00;;;;;;5049917;28;20432;-76
2022/02/11 17:15:07;;;;;;;10.20;0.93;;;5.20;1.00;;;;;;5040180;28;20545;-72
2022/02/11 17:17:34;;;;;;;10.80;1.53;;;5.10;1.00;;;;;;5041944;28;20451;-72
2022/02/11 17:20:00;;;;;;;1.57;0.97;;;5.10;1.00;;;;;;5050894;28;20421;-71
2022/02/11 17:22:25;;;;;;;2.50;1.10;;;5.10;1.00;;;;;;5053031;28;20426;-72
2022/02/11 17:25:14;;;;;;;4.50;1.73;;;5.00;1.00;;;;;;5053336;28;20183;-76
2022/02/11 17:28:02;;;;;;;3.80;1.00;;;4.90;1.00;;;;;;5040345;28;20939;-76
2022/02/11 17:30:29;;;;;;;3.73;1.50;;;4.80;1.00;;;;;;5039645;28;20739;-72